createdAt,value
2022-08-05T00:01:35.485Z,23.60
2022-08-05T00:04:17.994Z,23.60
2022-08-05T00:06:47.395Z,23.60
2022-08-05T00:09:20.516Z,23.70
2022-08-05T00:11:56.155Z,23.70
2022-08-05T00:14:29.439Z,23.60
2022-08-05T00:17:01.970Z,23.70
2022-08-05T00:19:33.241Z,23.50
2022-08-05T00:22:03.351Z,23.50
2022-08-05T00:24:32.959Z,23.70
2022-08-05T00:27:04.665Z,23.80
2022-08-05T00:29:42.440Z,23.70
2022-08-05T00:32:15.465Z,23.60
2022-08-05T00:35:03.524Z,23.60
2022-08-05T00:37:52.614Z,23.60
2022-08-05T00:40:26.652Z,23.80
2022-08-05T00:42:59.146Z,23.80
2022-08-05T00:45:38.346Z,23.80
2022-08-05T00:48:10.089Z,23.60
2022-08-05T00:50:41.916Z,23.70
2022-08-05T00:53:44.915Z,23.60
2022-08-05T00:56:01.181Z,23.40
2022-08-05T00:58:29.575Z,23.40
2022-08-05T01:00:58.194Z,23.30
2022-08-05T01:03:30.912Z,23.30
2022-08-05T01:06:01.754Z,23.40
2022-08-05T01:08:42.775Z,23.40
2022-08-05T01:11:21.854Z,23.30
2022-08-05T01:14:02.106Z,23.20
2022-08-05T01:16:39.890Z,23.20
2022-08-05T01:19:46.342Z,23.30
2022-08-05T01:22:34.122Z,23.30
2022-08-05T01:25:43.191Z,23.20
2022-08-05T01:28:49.565Z,23.20
2022-08-05T01:31:42.686Z,23.20
2022-08-05T01:34:21.464Z,23.10
2022-08-05T01:37:02.331Z,23.00
2022-08-05T01:39:45.651Z,22.90
2022-08-05T01:42:18.284Z,22.80
2022-08-05T01:44:54.193Z,22.80
2022-08-05T01:47:25.247Z,22.70
2022-08-05T01:50:15.231Z,22.80
2022-08-05T01:52:50.029Z,22.80
2022-08-05T01:55:21.635Z,22.80
2022-08-05T01:58:10.899Z,22.70
2022-08-05T02:00:44.012Z,22.70
2022-08-05T02:03:31.226Z,22.60
2022-08-05T02:06:03.607Z,22.50
2022-08-05T02:08:58.340Z,22.40
2022-08-05T02:11:34.151Z,22.50
2022-08-05T02:14:22.431Z,22.40
2022-08-05T02:16:55.512Z,22.40
2022-08-05T02:19:34.251Z,22.30
2022-08-05T02:22:25.416Z,22.20
2022-08-05T02:25:07.458Z,22.10
2022-08-05T02:27:58.866Z,22.00
2022-08-05T02:30:34.486Z,21.90
2022-08-05T02:33:04.822Z,21.80
2022-08-05T02:35:37.608Z,21.80
2022-08-05T02:38:09.416Z,21.80
2022-08-05T02:40:42.034Z,21.80
2022-08-05T02:43:15.409Z,21.70
2022-08-05T02:45:52.866Z,21.60
2022-08-05T02:48:29.479Z,21.60
2022-08-05T02:51:03.710Z,21.60
2022-08-05T02:53:39.056Z,21.40
2022-08-05T02:56:15.697Z,21.40
2022-08-05T02:58:51.394Z,21.30
2022-08-05T03:01:24.874Z,21.20
2022-08-05T03:04:11.931Z,21.10
2022-08-05T03:06:54.000Z,21.00
2022-08-05T03:09:38.336Z,20.90
2022-08-05T03:12:30.340Z,20.80
2022-08-05T03:14:59.427Z,20.70
2022-08-05T03:17:28.359Z,20.60
2022-08-05T03:19:58.517Z,20.50
2022-08-05T03:22:31.873Z,20.50
2022-08-05T03:25:11.587Z,20.30
2022-08-05T03:27:58.949Z,20.30
2022-08-05T03:30:34.108Z,20.20
2022-08-05T03:33:07.558Z,20.10
2022-08-05T03:35:41.079Z,20.10
2022-08-05T03:38:12.656Z,20.10
2022-08-05T03:40:47.533Z,20.00
2022-08-05T03:44:08.598Z,19.90
2022-08-05T03:46:08.292Z,19.90
2022-08-05T03:48:36.929Z,19.80
2022-08-05T03:52:38.841Z,19.80
2022-08-05T03:55:06.865Z,19.70
2022-08-05T03:57:17.880Z,19.60
2022-08-05T03:59:56.598Z,19.60
2022-08-05T04:02:37.692Z,19.60
2022-08-05T04:05:10.362Z,19.50
2022-08-05T04:07:57.314Z,19.40
2022-08-05T04:10:37.754Z,19.40
2022-08-05T04:13:08.747Z,19.40
2022-08-05T04:15:37.332Z,19.40
2022-08-05T04:18:09.726Z,19.30
2022-08-05T04:20:41.393Z,19.30
2022-08-05T04:23:12.690Z,19.20
2022-08-05T04:25:57.829Z,19.10
2022-08-05T04:28:31.856Z,19.10
2022-08-05T04:31:01.586Z,19.10
2022-08-05T04:34:17.428Z,18.90
2022-08-05T04:36:46.471Z,18.90
2022-08-05T04:39:13.454Z,18.80
2022-08-05T04:41:42.263Z,18.70
2022-08-05T04:44:12.719Z,18.70
2022-08-05T04:46:41.271Z,18.70
2022-08-05T04:49:15.483Z,18.60
2022-08-05T04:51:46.634Z,18.60
2022-08-05T04:54:16.229Z,18.60
2022-08-05T04:56:46.160Z,18.50
2022-08-05T04:59:24.281Z,18.50
2022-08-05T05:02:35.527Z,18.40
2022-08-05T05:05:01.707Z,18.40
2022-08-05T05:07:32.200Z,18.40
2022-08-05T05:10:05.142Z,18.30
2022-08-05T05:12:33.850Z,18.30
2022-08-05T05:15:10.789Z,18.30
2022-08-05T05:17:56.712Z,18.30
2022-08-05T05:20:28.434Z,18.20
2022-08-05T05:22:58.493Z,18.10
2022-08-05T05:25:40.449Z,18.10
2022-08-05T05:28:10.985Z,18.00
2022-08-05T05:30:40.546Z,18.00
2022-08-05T05:33:17.049Z,18.00
2022-08-05T05:35:48.907Z,18.00
2022-08-05T05:38:26.992Z,17.90
2022-08-05T05:40:57.376Z,17.90
2022-08-05T05:43:54.034Z,17.90
2022-08-05T05:46:17.552Z,17.80
2022-08-05T05:48:48.661Z,17.80
2022-08-05T05:51:25.883Z,17.70
2022-08-05T05:53:59.837Z,17.70
2022-08-05T05:56:34.859Z,17.60
2022-08-05T05:59:07.966Z,17.60
2022-08-05T06:01:39.594Z,17.50
2022-08-05T06:04:14.726Z,17.50
2022-08-05T06:06:47.522Z,17.50
2022-08-05T06:09:35.361Z,17.50
2022-08-05T06:12:06.941Z,17.40
2022-08-05T06:14:40.271Z,17.40
2022-08-05T06:17:22.672Z,17.40
2022-08-05T06:19:56.566Z,17.40
2022-08-05T06:22:30.503Z,17.30
2022-08-05T06:25:25.288Z,17.30
2022-08-05T06:28:11.890Z,17.30
2022-08-05T06:30:43.223Z,17.20
2022-08-05T06:33:11.726Z,17.10
2022-08-05T06:36:07.137Z,17.10
2022-08-05T06:38:37.053Z,17.00
2022-08-05T06:41:07.890Z,17.00
2022-08-05T06:43:58.277Z,17.10
2022-08-05T06:46:29.658Z,17.00
2022-08-05T06:48:59.989Z,16.90
2022-08-05T06:51:30.906Z,16.90
2022-08-05T06:54:04.670Z,16.80
2022-08-05T06:56:35.073Z,16.80
2022-08-05T06:59:09.503Z,16.80
2022-08-05T07:01:40.773Z,16.70
2022-08-05T07:04:13.945Z,16.70
2022-08-05T07:06:42.916Z,16.70
2022-08-05T07:09:11.280Z,16.70
2022-08-05T07:11:45.502Z,16.60
2022-08-05T07:14:36.320Z,16.60
2022-08-05T07:17:58.677Z,16.60
2022-08-05T07:22:43.447Z,16.40
2022-08-05T07:25:53.811Z,16.50
2022-08-05T07:28:07.298Z,16.40
2022-08-05T07:30:40.452Z,16.40
2022-08-05T07:33:15.981Z,16.40
2022-08-05T07:36:02.810Z,16.30
2022-08-05T07:38:43.217Z,16.30
2022-08-05T07:42:08.677Z,16.30
2022-08-05T07:44:14.531Z,16.20
2022-08-05T07:46:48.528Z,16.20
2022-08-05T07:49:18.648Z,16.10
2022-08-05T07:51:53.290Z,16.10
2022-08-05T07:54:31.065Z,16.10
2022-08-05T07:57:14.790Z,16.10
2022-08-05T07:59:53.651Z,16.00
2022-08-05T08:02:31.133Z,16.00
2022-08-05T08:05:16.444Z,16.00
2022-08-05T08:07:59.827Z,16.00
2022-08-05T08:10:29.497Z,15.90
2022-08-05T08:12:59.596Z,15.90
2022-08-05T08:16:33.967Z,15.90
2022-08-05T08:18:20.918Z,15.90
2022-08-05T08:21:02.782Z,15.80
2022-08-05T08:24:03.054Z,15.80
2022-08-05T08:26:27.032Z,15.70
2022-08-05T08:29:21.692Z,15.80
2022-08-05T08:31:47.589Z,15.80
2022-08-05T08:34:30.658Z,15.70
2022-08-05T08:37:04.627Z,15.80
2022-08-05T08:39:37.113Z,15.70
2022-08-05T08:42:27.578Z,15.70
2022-08-05T08:45:23.521Z,15.70
2022-08-05T08:48:11.778Z,15.70
2022-08-05T08:51:07.733Z,15.70
2022-08-05T08:53:30.805Z,15.60
2022-08-05T08:56:03.979Z,15.60
2022-08-05T08:58:37.033Z,15.60
2022-08-05T09:01:17.092Z,15.50
2022-08-05T09:03:54.540Z,15.50
2022-08-05T09:06:28.232Z,15.50
2022-08-05T09:09:01.720Z,15.50
2022-08-05T09:11:53.670Z,15.50
2022-08-05T09:14:59.092Z,15.40
2022-08-05T09:17:40.718Z,15.40
2022-08-05T09:20:06.670Z,15.40
2022-08-05T09:23:19.057Z,15.30
2022-08-05T09:26:01.629Z,15.30
2022-08-05T09:28:34.332Z,15.30
2022-08-05T09:32:38.756Z,15.20
2022-08-05T09:34:04.525Z,15.10
2022-08-05T09:36:54.895Z,15.10
2022-08-05T09:39:27.840Z,15.10
2022-08-05T09:42:20.289Z,15.10
2022-08-05T09:44:56.734Z,15.10
2022-08-05T09:47:48.002Z,15.10
2022-08-05T09:50:38.703Z,15.00
2022-08-05T09:53:12.082Z,15.00
2022-08-05T09:56:05.002Z,15.00
2022-08-05T09:58:42.215Z,14.90
2022-08-05T10:01:22.600Z,14.90
2022-08-05T10:04:16.215Z,15.00
2022-08-05T10:07:01.500Z,14.90
2022-08-05T10:09:45.265Z,14.80
2022-08-05T10:12:18.691Z,14.80
2022-08-05T10:15:23.951Z,14.80
2022-08-05T10:18:17.295Z,14.80
2022-08-05T10:20:55.117Z,14.80
2022-08-05T10:23:55.591Z,14.80
2022-08-05T10:26:15.476Z,14.80
2022-08-05T10:28:46.204Z,14.80
2022-08-05T10:32:48.183Z,14.80
2022-08-05T10:34:07.205Z,14.70
2022-08-05T10:36:41.203Z,14.60
2022-08-05T10:39:25.084Z,14.60
2022-08-05T10:42:33.314Z,14.50
2022-08-05T10:45:21.243Z,14.30
2022-08-05T10:48:31.949Z,14.30
2022-08-05T10:51:04.033Z,14.30
2022-08-05T10:53:38.408Z,14.30
2022-08-05T10:56:25.178Z,14.30
2022-08-05T10:58:56.686Z,14.20
2022-08-05T11:02:04.520Z,14.20
2022-08-05T11:04:30.988Z,14.20
2022-08-05T11:07:01.578Z,14.10
2022-08-05T11:09:46.384Z,14.10
2022-08-05T11:12:42.958Z,14.00
2022-08-05T11:16:00.960Z,14.00
2022-08-05T11:18:35.830Z,14.00
2022-08-05T11:21:40.881Z,14.00
2022-08-05T11:24:30.866Z,14.00
2022-08-05T11:27:51.268Z,14.00
2022-08-05T11:30:20.074Z,13.90
2022-08-05T11:32:48.440Z,13.90
2022-08-05T11:36:04.386Z,13.90
2022-08-05T11:38:51.283Z,13.90
2022-08-05T11:41:54.411Z,13.90
2022-08-05T11:44:40.762Z,13.80
2022-08-05T11:47:10.439Z,13.80
2022-08-05T11:49:42.800Z,13.70
2022-08-05T11:52:12.223Z,13.70
2022-08-05T11:54:43.432Z,13.70
2022-08-05T11:57:26.026Z,13.60
2022-08-05T11:59:56.041Z,13.50
2022-08-05T12:02:33.685Z,13.50
2022-08-05T12:05:06.730Z,13.40
2022-08-05T12:08:07.374Z,13.50
2022-08-05T12:10:42.840Z,13.50
2022-08-05T12:13:18.925Z,13.50
2022-08-05T12:16:14.653Z,13.50
2022-08-05T12:18:53.144Z,13.50
2022-08-05T12:21:31.865Z,13.50
2022-08-05T12:24:12.077Z,13.50
2022-08-05T12:26:46.155Z,13.50
2022-08-05T12:29:23.385Z,13.50
2022-08-05T12:31:54.017Z,13.50
2022-08-05T12:34:31.895Z,13.40
2022-08-05T12:37:17.648Z,13.40
2022-08-05T12:39:55.726Z,13.30
2022-08-05T12:42:32.185Z,13.30
2022-08-05T12:45:09.502Z,13.40
2022-08-05T12:47:43.612Z,13.40
2022-08-05T12:50:27.463Z,13.40
2022-08-05T12:53:00.827Z,13.40
2022-08-05T12:55:32.986Z,13.40
2022-08-05T12:58:38.830Z,13.30
2022-08-05T13:02:02.063Z,13.30
2022-08-05T13:03:41.997Z,13.30
2022-08-05T13:06:18.341Z,13.20
2022-08-05T13:08:50.810Z,13.30
2022-08-05T13:12:02.899Z,13.30
2022-08-05T13:14:24.979Z,13.20
2022-08-05T13:17:11.202Z,13.10
2022-08-05T13:19:52.222Z,13.10
2022-08-05T13:22:28.147Z,13.10
2022-08-05T13:25:00.792Z,13.20
2022-08-05T13:27:37.894Z,13.30
2022-08-05T13:30:33.513Z,13.40
2022-08-05T13:33:01.113Z,13.40
2022-08-05T13:35:42.636Z,13.50
2022-08-05T13:38:28.172Z,13.50
2022-08-05T13:41:00.773Z,13.60
2022-08-05T13:43:44.496Z,13.60
2022-08-05T13:46:30.778Z,13.70
2022-08-05T13:49:10.358Z,13.70
2022-08-05T13:51:46.578Z,13.80
2022-08-05T13:54:21.165Z,13.80
2022-08-05T13:56:54.472Z,13.90
2022-08-05T13:59:26.944Z,14.00
2022-08-05T14:02:00.520Z,14.00
2022-08-05T14:04:51.142Z,14.20
2022-08-05T14:08:00.302Z,14.10
2022-08-05T14:10:28.890Z,14.20
2022-08-05T14:12:59.980Z,14.30
2022-08-05T14:16:04.985Z,14.50
2022-08-05T14:18:23.185Z,14.60
2022-08-05T14:20:54.574Z,14.60
2022-08-05T14:23:25.741Z,14.80
2022-08-05T14:25:59.613Z,14.80
2022-08-05T14:28:30.397Z,15.00
2022-08-05T14:31:01.997Z,15.10
2022-08-05T14:33:59.317Z,15.20
2022-08-05T14:36:21.590Z,15.30
2022-08-05T14:38:51.019Z,15.30
2022-08-05T14:41:19.797Z,15.40
2022-08-05T14:43:59.674Z,15.50
2022-08-05T14:46:35.371Z,15.60
2022-08-05T14:49:07.632Z,15.70
2022-08-05T14:51:37.982Z,15.80
2022-08-05T14:54:28.175Z,16.00
2022-08-05T14:56:56.751Z,15.90
2022-08-05T14:59:25.363Z,16.00
2022-08-05T15:01:58.746Z,16.20
2022-08-05T15:04:28.945Z,16.20
2022-08-05T15:06:57.715Z,16.00
2022-08-05T15:09:52.287Z,16.30
2022-08-05T15:12:16.578Z,16.40
2022-08-05T15:14:50.094Z,16.40
2022-08-05T15:17:47.412Z,16.40
2022-08-05T15:20:18.473Z,16.60
2022-08-05T15:22:54.038Z,17.10
2022-08-05T15:25:51.461Z,18.00
2022-08-05T15:28:15.668Z,19.40
2022-08-05T15:30:46.697Z,21.30
2022-08-05T15:33:56.562Z,23.00
2022-08-05T15:36:17.497Z,24.40
2022-08-05T15:41:00.149Z,25.80
2022-08-05T15:41:57.334Z,27.00
2022-08-05T15:44:30.318Z,28.40
2022-08-05T15:47:01.802Z,28.70
2022-08-05T15:49:53.323Z,30.90
2022-08-05T15:52:53.942Z,30.90
2022-08-05T15:55:15.991Z,31.20
2022-08-05T15:57:45.503Z,31.50
2022-08-05T16:00:26.251Z,31.40
2022-08-05T16:03:07.523Z,31.00
2022-08-05T16:05:36.060Z,32.10
2022-08-05T16:08:07.423Z,31.30
2022-08-05T16:10:36.584Z,33.40
2022-08-05T16:13:05.031Z,33.40
2022-08-05T16:15:33.973Z,33.20
2022-08-05T16:18:04.352Z,32.00
2022-08-05T16:20:37.629Z,34.00
2022-08-05T16:23:08.425Z,35.00
2022-08-05T16:25:37.291Z,33.30
2022-08-05T16:28:10.434Z,32.80
2022-08-05T16:30:39.292Z,32.40
2022-08-05T16:33:10.051Z,34.70
2022-08-05T16:35:42.892Z,33.50
2022-08-05T16:38:23.723Z,32.10
2022-08-05T16:40:59.648Z,33.80
2022-08-05T16:43:32.664Z,34.70
2022-08-05T16:46:23.716Z,35.20
2022-08-05T16:48:51.811Z,36.80
2022-08-05T16:51:21.151Z,34.90
2022-08-05T16:54:04.954Z,36.20
2022-08-05T16:56:41.748Z,35.80
2022-08-05T16:59:11.037Z,35.40
2022-08-05T17:01:54.606Z,35.90
2022-08-05T17:04:28.622Z,36.30
2022-08-05T17:07:01.592Z,32.50
2022-08-05T17:09:57.793Z,31.30
2022-08-05T17:12:22.591Z,30.60
2022-08-05T17:15:10.252Z,30.90
2022-08-05T17:17:46.289Z,30.20
2022-08-05T17:20:23.367Z,30.20
2022-08-05T17:22:55.402Z,28.20
2022-08-05T17:25:34.152Z,27.60
2022-08-05T17:28:09.304Z,26.80
2022-08-05T17:30:50.780Z,25.30
2022-08-05T17:33:21.995Z,25.60
2022-08-05T17:36:07.526Z,25.70
2022-08-05T17:38:39.961Z,24.90
2022-08-05T17:41:22.997Z,24.80
2022-08-05T17:43:57.922Z,24.50
2022-08-05T17:46:26.330Z,24.50
2022-08-05T17:48:56.099Z,24.00
2022-08-05T17:51:26.455Z,23.40
2022-08-05T17:53:55.112Z,22.90
2022-08-05T17:56:23.484Z,23.20
2022-08-05T17:58:57.082Z,23.80
2022-08-05T18:01:25.599Z,24.40
2022-08-05T18:04:04.372Z,24.50
2022-08-05T18:06:34.313Z,24.60
2022-08-05T18:09:03.704Z,23.60
2022-08-05T18:11:33.983Z,23.80
2022-08-05T18:14:13.462Z,23.10
2022-08-05T18:16:52.017Z,23.20
2022-08-05T18:19:23.331Z,23.00
2022-08-05T18:22:09.272Z,23.20
2022-08-05T18:24:40.553Z,23.00
2022-08-05T18:27:12.975Z,23.40
2022-08-05T18:29:53.630Z,23.20
2022-08-05T18:32:28.425Z,23.40
2022-08-05T18:34:59.032Z,23.80
2022-08-05T18:37:34.038Z,24.10
2022-08-05T18:40:34.070Z,24.20
2022-08-05T18:42:57.704Z,24.40
2022-08-05T18:45:26.276Z,25.20
2022-08-05T18:48:10.975Z,25.70
2022-08-05T18:51:01.625Z,25.60
2022-08-05T18:53:50.206Z,25.90
2022-08-05T18:56:21.794Z,26.10
2022-08-05T18:58:54.931Z,26.90
2022-08-05T19:01:47.243Z,28.20
2022-08-05T19:04:24.034Z,28.40
2022-08-05T19:06:53.609Z,29.40
2022-08-05T19:09:22.457Z,29.00
2022-08-05T19:11:59.987Z,29.70
2022-08-05T19:14:44.768Z,30.70
2022-08-05T19:17:19.422Z,29.80
2022-08-05T19:19:48.604Z,29.30
2022-08-05T19:22:17.721Z,29.70
2022-08-05T19:24:56.503Z,30.10
2022-08-05T19:27:30.515Z,30.10
2022-08-05T19:29:59.632Z,31.60
2022-08-05T19:32:28.385Z,31.40
2022-08-05T19:34:58.126Z,30.40
2022-08-05T19:37:35.086Z,30.60
2022-08-05T19:40:16.185Z,30.60
2022-08-05T19:43:04.954Z,30.10
2022-08-05T19:45:36.797Z,30.40
2022-08-05T19:48:06.991Z,30.80
2022-08-05T19:50:43.121Z,30.80
2022-08-05T19:53:11.938Z,30.70
2022-08-05T19:56:15.473Z,30.90
2022-08-05T19:58:30.232Z,30.70
2022-08-05T20:00:59.352Z,28.90
2022-08-05T20:03:29.284Z,28.30
2022-08-05T20:06:14.820Z,27.70
2022-08-05T20:08:47.612Z,26.30
2022-08-05T20:11:18.084Z,26.10
2022-08-05T20:13:58.994Z,25.40
2022-08-05T20:16:36.708Z,25.70
2022-08-05T20:19:05.576Z,25.50
2022-08-05T20:21:35.228Z,25.30
2022-08-05T20:24:07.244Z,25.40
2022-08-05T20:26:39.776Z,25.20
2022-08-05T20:29:27.561Z,25.10
2022-08-05T20:31:58.315Z,25.10
2022-08-05T20:34:28.173Z,24.80
2022-08-05T20:36:56.549Z,24.80
2022-08-05T20:39:25.008Z,24.50
2022-08-05T20:42:04.470Z,24.50
2022-08-05T20:44:37.801Z,24.50
2022-08-05T20:47:07.992Z,24.50
2022-08-05T20:49:39.328Z,24.50
2022-08-05T20:52:10.753Z,24.40
2022-08-05T20:54:42.942Z,24.40
2022-08-05T20:57:14.151Z,24.50
2022-08-05T20:59:46.165Z,24.80
2022-08-05T21:02:37.416Z,24.80
2022-08-05T21:05:09.316Z,24.70
2022-08-05T21:07:50.441Z,24.90
2022-08-05T21:10:20.364Z,24.90
2022-08-05T21:13:08.885Z,25.10
2022-08-05T21:15:38.863Z,24.90
2022-08-05T21:18:07.323Z,25.10
2022-08-05T21:20:36.252Z,25.20
2022-08-05T21:23:04.732Z,25.20
2022-08-05T21:25:34.359Z,25.00
2022-08-05T21:28:03.918Z,25.00
2022-08-05T21:30:32.706Z,25.00
2022-08-05T21:33:01.836Z,25.00
2022-08-05T21:35:43.542Z,24.90
2022-08-05T21:38:12.576Z,25.20
2022-08-05T21:40:42.403Z,25.30
2022-08-05T21:43:24.068Z,25.30
2022-08-05T21:45:57.624Z,25.20
2022-08-05T21:48:29.628Z,25.30
2022-08-05T21:51:00.589Z,25.40
2022-08-05T21:53:28.934Z,25.30
2022-08-05T21:56:09.969Z,25.30
2022-08-05T21:58:56.985Z,25.50
2022-08-05T22:01:27.091Z,25.50
2022-08-05T22:03:56.179Z,25.50
2022-08-05T22:06:35.139Z,25.60
2022-08-05T22:09:13.576Z,25.70
2022-08-05T22:11:46.764Z,25.80
2022-08-05T22:14:32.999Z,25.80
2022-08-05T22:17:05.328Z,25.70
2022-08-05T22:20:02.801Z,25.70
2022-08-05T22:22:27.900Z,25.80
2022-08-05T22:25:18.262Z,25.70
2022-08-05T22:28:09.109Z,25.70
2022-08-05T22:30:44.038Z,25.60
2022-08-05T22:33:57.573Z,25.70
2022-08-05T22:36:15.413Z,25.70
2022-08-05T22:38:48.477Z,25.80
2022-08-05T22:42:04.522Z,25.60
2022-08-05T22:44:09.080Z,25.60
2022-08-05T22:46:39.808Z,25.70
2022-08-05T22:49:12.466Z,25.70
2022-08-05T22:52:07.637Z,25.70
2022-08-05T22:54:48.781Z,25.80
2022-08-05T22:57:17.471Z,26.00
2022-08-05T22:59:51.796Z,26.30
2022-08-05T23:02:29.348Z,26.30
2022-08-05T23:05:02.051Z,26.10
2022-08-05T23:07:45.163Z,26.10
2022-08-05T23:10:20.236Z,26.00
2022-08-05T23:12:51.713Z,26.10
2022-08-05T23:15:28.944Z,26.10
2022-08-05T23:18:02.317Z,26.10
2022-08-05T23:20:33.804Z,26.10
2022-08-05T23:23:08.085Z,26.20
2022-08-05T23:25:51.447Z,26.20
2022-08-05T23:28:22.619Z,26.30
2022-08-05T23:30:53.310Z,26.40
2022-08-05T23:33:26.181Z,26.40
2022-08-05T23:36:13.505Z,26.50
2022-08-05T23:38:43.560Z,26.30
2022-08-05T23:41:12.392Z,26.30
2022-08-05T23:44:05.521Z,26.30
2022-08-05T23:46:29.976Z,26.50
2022-08-05T23:49:00.678Z,26.40
2022-08-05T23:51:56.394Z,26.40
2022-08-05T23:54:34.002Z,26.40
2022-08-05T23:57:06.072Z,26.40
